Time;durP1;ratioP1;P1;durP2;ratioP2;P2;SDS_P1;SDS_P2;PMS_P1;PMS_P2;Temp;Humidity;BMP_temperature;BMP_pressure;BME280_temperature;BME280_humidity;BME280_pressure;Samples;Min_cycle;Max_cycle;Signal;HPM_P1;HPM_P2
2021/09/18 00:00:58;;;;;;;3.97;3.57;;;7.90;99.90;;;8.32;100.00;95023.00;2244292;56;26663;-61
2021/09/18 00:03:45;;;;;;;9.00;5.40;;;8.00;99.90;;;8.42;100.00;95024.00;2264941;55;26173;-60
2021/09/18 00:06:32;;;;;;;8.97;6.07;;;8.20;99.90;;;8.60;100.00;95019.00;2260628;55;26991;-61
2021/09/18 00:09:19;;;;;;;6.63;5.90;;;8.30;99.90;;;8.74;100.00;95017.00;2287049;55;26129;-61
2021/09/18 00:12:07;;;;;;;10.37;5.90;;;8.50;99.90;;;8.91;100.00;95022.00;2245008;57;26192;-60
2021/09/18 00:14:54;;;;;;;8.47;5.70;;;8.60;99.90;;;8.99;100.00;95028.00;2458673;55;26111;-61
2021/09/18 00:17:40;;;;;;;6.80;5.30;;;8.60;99.90;;;9.02;100.00;95032.00;2249244;56;26584;-60
2021/09/18 00:20:26;;;;;;;10.87;5.70;;;8.70;99.90;;;9.04;100.00;95032.00;2261827;55;26238;-60
2021/09/18 00:23:13;;;;;;;9.23;5.20;;;8.70;99.90;;;9.13;100.00;95033.00;2414197;55;26160;-61
2021/09/18 00:25:59;;;;;;;5.70;5.10;;;8.70;99.90;;;9.04;100.00;95037.00;2287117;55;26544;-60
2021/09/18 00:28:45;;;;;;;8.60;5.17;;;8.70;99.90;;;8.98;100.00;95038.00;2347123;55;26111;-60
2021/09/18 00:31:32;;;;;;;5.67;4.33;;;8.60;99.90;;;8.90;100.00;95036.00;2521222;55;26544;-61
2021/09/18 00:34:18;;;;;;;4.87;4.33;;;8.60;99.90;;;8.89;100.00;95042.00;2287465;55;26223;-63
2021/09/18 00:37:05;;;;;;;5.40;4.50;;;8.50;99.90;;;8.84;100.00;95049.00;2520858;55;26591;-63
2021/09/18 00:39:51;;;;;;;6.73;5.17;;;8.50;99.90;;;8.84;100.00;95041.00;2520954;55;26121;-61
2021/09/18 00:42:38;;;;;;;4.93;4.53;;;8.50;99.90;;;8.84;100.00;95042.00;2389951;55;26091;-61
2021/09/18 00:48:21;;;;;;;5.00;4.50;;;8.50;99.90;;;9.05;100.00;95021.00;2252561;55;33124;-60
2021/09/18 00:51:08;;;;;;;5.80;5.20;;;8.50;99.90;;;8.88;100.00;95041.00;2249926;55;26748;-61
2021/09/18 00:53:56;;;;;;;5.10;4.50;;;8.50;99.90;;;8.91;100.00;95035.00;2231552;56;26187;-61
2021/09/18 00:56:44;;;;;;;5.70;4.47;;;8.40;99.90;;;8.77;100.00;95040.00;2223529;56;26231;-61
2021/09/18 00:59:30;;;;;;;6.03;4.40;;;8.40;99.90;;;8.70;100.00;95035.00;2241303;56;26529;-61
2021/09/18 01:02:17;;;;;;;6.30;4.60;;;8.30;99.90;;;8.59;100.00;95032.00;2241295;56;26629;-60
2021/09/18 01:05:06;;;;;;;6.03;4.00;;;8.20;99.90;;;8.45;100.00;95032.00;2339243;55;26110;-61
2021/09/18 01:07:56;;;;;;;4.83;4.33;;;8.00;99.90;;;8.27;100.00;95034.00;2241731;56;26737;-60
2021/09/18 01:10:42;;;;;;;6.20;4.63;;;7.90;99.90;;;8.17;100.00;95027.00;2241254;56;26636;-60
2021/09/18 01:13:28;;;;;;;6.60;4.60;;;7.90;99.90;;;8.21;100.00;95031.00;2325491;55;26106;-60
2021/09/18 01:16:15;;;;;;;4.93;4.47;;;8.00;99.90;;;8.35;100.00;95036.00;2241159;56;26214;-60
2021/09/18 01:22:00;;;;;;;6.47;4.53;;;7.90;99.90;;;8.33;100.00;95009.00;2256943;56;33708;-60
2021/09/18 01:24:47;;;;;;;5.90;4.10;;;7.90;99.90;;;8.27;100.00;95026.00;2451748;54;26153;-63
2021/09/18 01:27:33;;;;;;;4.57;3.93;;;7.90;99.90;;;8.30;100.00;95023.00;2265654;56;26178;-61
2021/09/18 01:30:23;;;;;;;5.07;4.03;;;8.10;99.90;;;8.44;100.00;95022.00;2495618;55;26665;-60
2021/09/18 01:33:10;;;;;;;6.00;4.10;;;8.10;99.90;;;8.55;100.00;95042.00;2283976;56;26083;-60
2021/09/18 01:35:57;;;;;;;4.30;3.90;;;8.20;99.90;;;8.61;100.00;95035.00;2288278;56;26526;-60
2021/09/18 01:38:43;;;;;;;5.90;4.20;;;8.30;99.90;;;8.69;100.00;95027.00;2288008;56;26128;-61
2021/09/18 01:41:31;;;;;;;4.67;4.17;;;8.20;99.90;;;8.55;100.00;95031.00;2288337;56;26139;-60
2021/09/18 01:44:19;;;;;;;4.37;3.97;;;8.20;99.90;;;8.52;100.00;95037.00;2290472;55;26119;-61
2021/09/18 01:47:05;;;;;;;4.40;4.00;;;8.30;99.90;;;8.68;100.00;95028.00;2521675;55;26071;-61
2021/09/18 01:49:52;;;;;;;4.43;4.03;;;8.40;99.90;;;8.84;100.00;95036.00;2521975;55;26131;-60
2021/09/18 01:52:47;;;;;;;5.63;4.00;;;8.50;99.90;;;9.02;100.00;95037.00;2522326;55;26096;-60
2021/09/18 01:55:34;;;;;;;4.40;4.00;;;8.70;99.90;;;9.13;100.00;95033.00;2282050;56;26080;-60
2021/09/18 02:01:18;;;;;;;4.10;3.43;;;8.80;99.90;;;9.29;100.00;95008.00;2229867;55;33273;-60
2021/09/18 02:04:05;;;;;;;3.70;3.40;;;8.70;99.90;;;8.93;100.00;95028.00;2233533;56;26154;-60
2021/09/18 02:06:51;;;;;;;6.03;3.47;;;8.60;99.90;;;8.86;100.00;95038.00;2218664;55;26134;-60
2021/09/18 02:09:38;;;;;;;4.57;3.87;;;8.60;99.90;;;8.95;100.00;95036.00;2430676;56;26200;-60
2021/09/18 02:12:24;;;;;;;5.27;3.70;;;8.60;99.90;;;8.96;100.00;95031.00;2279552;56;26212;-60
2021/09/18 02:15:13;;;;;;;3.90;3.60;;;8.60;99.90;;;8.90;100.00;95033.00;2286934;56;26557;-61
2021/09/18 02:18:00;;;;;;;3.80;3.50;;;8.60;99.90;;;8.99;100.00;95033.00;2245082;55;26649;-61
2021/09/18 02:20:47;;;;;;;3.50;3.20;;;8.60;99.90;;;9.07;100.00;95026.00;2243978;56;26640;-61
2021/09/18 02:23:33;;;;;;;3.93;3.47;;;8.60;99.90;;;8.96;100.00;95019.00;2483063;55;26557;-61
2021/09/18 02:26:20;;;;;;;3.57;3.00;;;8.70;99.90;;;9.05;100.00;95023.00;2260814;56;26150;-60
2021/09/18 02:29:06;;;;;;;3.60;2.93;;;8.60;99.90;;;9.02;100.00;95019.00;2307091;55;28403;-60
2021/09/18 02:31:53;;;;;;;5.10;3.10;;;8.60;99.90;;;8.96;100.00;95017.00;2258989;55;26247;-60
2021/09/18 02:34:39;;;;;;;3.37;3.07;;;8.60;99.90;;;8.85;100.00;95014.00;2266955;55;26242;-61
2021/09/18 02:37:26;;;;;;;3.67;3.37;;;8.50;99.90;;;8.86;100.00;95014.00;2267037;55;26150;-61
2021/09/18 02:40:15;;;;;;;3.30;3.00;;;8.60;99.90;;;8.94;100.00;95013.00;2259879;55;26767;-60
2021/09/18 02:43:03;;;;;;;3.43;3.13;;;8.60;99.90;;;8.95;100.00;95012.00;2233980;56;26208;-60
2021/09/18 02:45:50;;;;;;;5.97;3.00;;;8.60;99.90;;;8.94;100.00;95011.00;2233921;56;26200;-60
2021/09/18 02:48:36;;;;;;;4.00;3.30;;;8.60;99.90;;;9.01;100.00;95006.00;2328248;56;26577;-60
2021/09/18 02:51:23;;;;;;;4.23;3.47;;;8.70;99.90;;;9.13;100.00;95008.00;2217705;56;26231;-61
2021/09/18 02:54:10;;;;;;;6.00;3.30;;;8.70;99.90;;;9.09;100.00;95004.00;2214654;56;26625;-61
2021/09/18 02:56:56;;;;;;;3.47;3.10;;;8.60;99.90;;;8.94;100.00;94998.00;2214506;56;26162;-61
2021/09/18 02:59:43;;;;;;;4.13;3.77;;;8.60;99.90;;;8.99;100.00;95009.00;2279231;56;26216;-60
2021/09/18 03:02:30;;;;;;;4.07;3.67;;;8.60;99.90;;;9.03;100.00;95017.00;2238850;56;26199;-61
2021/09/18 03:05:17;;;;;;;3.80;3.40;;;8.60;99.90;;;9.01;100.00;95015.00;2242529;56;26281;-60
2021/09/18 03:08:04;;;;;;;3.90;3.40;;;8.50;99.90;;;8.85;100.00;95015.00;2239202;56;26147;-61
2021/09/18 03:10:51;;;;;;;3.90;3.50;;;8.50;99.90;;;8.83;100.00;95009.00;2239828;56;26625;-60
2021/09/18 03:13:38;;;;;;;4.00;3.60;;;8.60;99.90;;;8.92;100.00;95013.00;2463583;55;26195;-61
2021/09/18 03:16:24;;;;;;;3.93;3.27;;;8.60;99.90;;;9.03;100.00;95014.00;2239034;56;26638;-60
2021/09/18 03:19:11;;;;;;;3.40;3.07;;;8.70;99.90;;;9.09;100.00;95020.00;2299803;55;26578;-60
2021/09/18 03:24:55;;;;;;;4.13;3.37;;;8.80;99.90;;;9.16;100.00;94992.00;2280965;54;33641;-61
2021/09/18 03:27:41;;;;;;;5.33;3.50;;;8.80;99.90;;;9.10;100.00;95011.00;2516756;53;26638;-60
2021/09/18 03:30:28;;;;;;;4.03;3.63;;;8.80;99.90;;;9.23;100.00;95013.00;2283913;56;26658;-60
2021/09/18 03:33:14;;;;;;;2.87;2.63;;;8.90;99.90;;;9.30;100.00;95004.00;2516563;55;26189;-61
2021/09/18 03:36:00;;;;;;;3.70;3.27;;;8.80;99.90;;;9.17;100.00;95003.00;2254615;55;27183;-60
2021/09/18 03:38:47;;;;;;;4.77;3.07;;;8.80;99.90;;;9.16;100.00;95007.00;2486410;55;26554;-61
2021/09/18 03:41:33;;;;;;;5.27;3.20;;;8.80;99.90;;;9.15;100.00;95011.00;2258715;55;26138;-60
2021/09/18 03:44:20;;;;;;;4.00;2.87;;;8.70;99.90;;;9.00;100.00;95003.00;2392290;55;26162;-60
2021/09/18 03:47:06;;;;;;;3.70;3.33;;;8.60;99.90;;;8.88;100.00;95001.00;2485757;55;26158;-61
2021/09/18 03:49:54;;;;;;;4.60;3.73;;;8.60;99.90;;;8.91;100.00;94998.00;2258771;55;26135;-61
2021/09/18 03:52:40;;;;;;;4.17;3.20;;;8.60;99.90;;;8.98;100.00;95002.00;2269490;55;26158;-61
2021/09/18 03:55:27;;;;;;;5.63;3.33;;;8.50;99.90;;;8.75;100.00;95003.00;2273339;55;26132;-61
2021/09/18 04:01:11;;;;;;;4.50;3.67;;;8.40;99.90;;;8.79;100.00;94986.00;2218590;55;33340;-61
2021/09/18 04:03:59;;;;;;;5.80;3.70;;;8.30;99.90;;;8.67;100.00;95001.00;2240973;56;26191;-61
2021/09/18 04:06:47;;;;;;;6.20;3.83;;;8.40;99.90;;;8.72;100.00;95004.00;2235385;56;26236;-61
2021/09/18 04:09:34;;;;;;;4.67;3.17;;;8.40;99.90;;;8.77;100.00;95009.00;2235155;56;26195;-61
2021/09/18 04:12:20;;;;;;;4.10;3.30;;;8.40;99.90;;;8.67;100.00;95009.00;2457922;55;26196;-61
2021/09/18 04:15:09;;;;;;;4.03;3.20;;;8.40;99.90;;;8.72;100.00;95014.00;2340236;55;26179;-61
2021/09/18 04:20:53;;;;;;;5.97;3.23;;;8.70;99.90;;;9.21;100.00;94995.00;2267787;54;33290;-60
2021/09/18 04:23:39;;;;;;;5.90;3.50;;;8.70;99.90;;;9.18;100.00;95028.00;2244646;56;26250;-60
2021/09/18 04:26:26;;;;;;;5.77;3.50;;;8.80;99.90;;;9.20;100.00;95031.00;2262095;55;26240;-60
2021/09/18 04:32:10;;;;;;;5.40;3.20;;;8.90;99.90;;;9.50;100.00;95002.00;2242355;55;33170;-60
2021/09/18 04:34:56;;;;;;;3.50;3.20;;;9.00;99.90;;;9.45;100.00;95023.00;2239726;56;26314;-60
2021/09/18 04:37:43;;;;;;;3.97;2.83;;;9.00;99.90;;;9.39;100.00;95021.00;2223663;56;26237;-61
2021/09/18 04:40:30;;;;;;;3.80;3.17;;;8.90;99.90;;;9.28;100.00;95024.00;2242257;56;26264;-60
2021/09/18 04:43:16;;;;;;;3.73;3.27;;;8.90;99.90;;;9.28;100.00;95027.00;2240322;56;26238;-61
2021/09/18 04:46:03;;;;;;;3.93;3.00;;;8.90;99.90;;;9.27;100.00;95030.00;2265529;56;26192;-61
2021/09/18 04:48:49;;;;;;;3.53;3.23;;;8.80;99.90;;;9.09;100.00;95033.00;2262432;55;26183;-60
2021/09/18 04:51:36;;;;;;;4.17;3.10;;;8.70;99.90;;;9.04;100.00;95035.00;2252715;56;26107;-61
2021/09/18 04:54:22;;;;;;;6.00;3.50;;;8.70;99.90;;;9.01;100.00;95039.00;2261686;55;26198;-61
2021/09/18 04:57:09;;;;;;;3.87;3.47;;;8.70;99.90;;;8.94;100.00;95038.00;2262026;55;26713;-61
2021/09/18 04:59:56;;;;;;;4.60;3.50;;;8.60;99.90;;;8.93;100.00;95048.00;2261791;55;26190;-61
2021/09/18 05:02:42;;;;;;;3.40;3.10;;;8.60;99.90;;;8.92;100.00;95045.00;2265708;55;26675;-60
2021/09/18 05:05:29;;;;;;;7.60;3.50;;;8.60;99.90;;;8.97;100.00;95055.00;2261350;55;26707;-60
2021/09/18 05:08:16;;;;;;;4.80;3.30;;;8.70;99.90;;;9.03;100.00;95049.00;2271232;55;26193;-60
2021/09/18 05:11:02;;;;;;;3.83;3.37;;;8.70;99.90;;;9.06;100.00;95049.00;2261692;55;26553;-60
2021/09/18 05:13:49;;;;;;;4.07;3.60;;;8.70;99.90;;;9.05;100.00;95057.00;2491112;55;26064;-61
2021/09/18 05:16:35;;;;;;;3.67;3.13;;;8.60;99.90;;;8.96;100.00;95059.00;2457196;55;26542;-60
2021/09/18 05:19:22;;;;;;;3.50;3.20;;;8.50;99.90;;;8.88;100.00;95061.00;2270185;55;26178;-61
2021/09/18 05:22:09;;;;;;;3.87;3.50;;;8.50;99.90;;;8.86;100.00;95051.00;2261757;55;26648;-60
2021/09/18 05:24:55;;;;;;;4.77;3.27;;;8.50;99.90;;;8.95;100.00;95054.00;2261730;55;26099;-61
2021/09/18 05:27:42;;;;;;;4.10;3.70;;;8.40;99.90;;;8.75;100.00;95045.00;2261220;56;26102;-61
2021/09/18 05:30:28;;;;;;;4.03;3.40;;;8.30;99.90;;;8.64;100.00;95053.00;2261127;55;26214;-60
2021/09/18 05:33:15;;;;;;;5.63;3.40;;;8.30;99.90;;;8.60;100.00;95057.00;2490880;55;26115;-61
2021/09/18 05:36:02;;;;;;;5.00;3.80;;;8.30;99.90;;;8.59;100.00;95055.00;2310467;55;26202;-61
2021/09/18 05:38:48;;;;;;;4.50;3.70;;;8.20;99.90;;;8.51;100.00;95055.00;2261942;56;26228;-61
2021/09/18 05:41:35;;;;;;;5.73;3.90;;;8.20;99.90;;;8.63;100.00;95059.00;2490637;55;26099;-61
2021/09/18 05:44:21;;;;;;;5.17;4.17;;;8.30;99.90;;;8.67;100.00;95064.00;2261417;56;26068;-61
2021/09/18 05:47:08;;;;;;;4.10;3.70;;;8.40;99.90;;;8.80;100.00;95066.00;2488918;55;26279;-62
2021/09/18 05:49:54;;;;;;;4.00;3.57;;;8.30;99.90;;;8.77;100.00;95060.00;2488674;55;26083;-61
2021/09/18 05:52:41;;;;;;;4.17;3.77;;;8.30;99.90;;;8.80;100.00;95058.00;2336816;55;26067;-60
2021/09/18 05:58:24;;;;;;;4.43;3.07;;;8.40;99.90;;;9.05;100.00;95042.00;2248266;54;33261;-60
2021/09/18 06:04:07;;;;;;;4.83;3.90;;;8.70;99.90;;;9.32;100.00;95052.00;2266511;55;33842;-61
2021/09/18 06:06:54;;;;;;;3.50;3.20;;;8.80;99.90;;;9.32;100.00;95073.00;2207007;56;26167;-60
2021/09/18 06:09:41;;;;;;;5.03;3.43;;;8.90;99.90;;;9.39;100.00;95077.00;2201049;57;26442;-61
2021/09/18 06:15:25;;;;;;;3.80;3.50;;;9.10;99.90;;;9.76;100.00;95057.00;2224684;56;33516;-61
2021/09/18 06:18:12;;;;;;;3.80;3.50;;;9.20;99.90;;;9.80;100.00;95079.00;2245246;56;26248;-61
2021/09/18 06:21:00;;;;;;;6.00;3.80;;;9.30;99.90;;;9.83;100.00;95079.00;2238737;56;26196;-61
2021/09/18 06:23:47;;;;;;;4.63;4.20;;;9.40;99.90;;;9.94;100.00;95076.00;2233967;56;26813;-61
2021/09/18 06:26:33;;;;;;;5.53;4.00;;;9.50;99.90;;;10.04;100.00;95071.00;2254849;56;26239;-63
2021/09/18 06:29:20;;;;;;;4.00;3.60;;;9.60;99.90;;;10.12;100.00;95082.00;2257079;56;26188;-61
2021/09/18 06:32:08;;;;;;;4.20;3.80;;;9.80;99.90;;;10.22;100.00;95087.00;2237829;56;26653;-61
2021/09/18 06:34:54;;;;;;;4.20;3.77;;;9.80;99.90;;;10.31;100.00;95081.00;2234097;57;26559;-60
2021/09/18 06:37:45;;;;;;;4.63;3.83;;;10.00;99.90;;;10.43;100.00;95082.00;2218520;57;26580;-63
2021/09/18 06:40:31;;;;;;;5.83;4.13;;;10.10;99.90;;;10.69;100.00;95078.00;2191252;58;26318;-61
2021/09/18 06:43:18;;;;;;;5.30;3.77;;;10.50;99.90;;;11.58;100.00;95072.00;2191279;58;26260;-61
2021/09/18 06:46:04;;;;;;;6.07;3.63;;;11.60;99.90;;;13.13;100.00;95080.00;2283922;57;26647;-61
2021/09/18 06:48:50;;;;;;;3.10;2.80;;;12.70;99.90;;;14.44;100.00;95057.00;2284072;57;26205;-61
2021/09/18 06:51:37;;;;;;;3.00;2.70;;;13.60;99.90;;;15.54;100.00;95039.00;2218532;57;26132;-63
2021/09/18 06:54:24;;;;;;;4.57;2.85;;;14.40;99.90;;;16.76;100.00;95035.00;2234935;57;26193;-61
2021/09/18 06:57:11;;;;;;;2.83;2.58;;;15.60;99.90;;;18.49;100.00;95027.00;2194105;57;26175;-61
2021/09/18 06:59:58;;;;;;;3.10;2.40;;;16.90;99.90;;;19.61;100.00;95029.00;2215907;58;26162;-62
2021/09/18 07:02:44;;;;;;;2.72;2.50;;;18.10;99.90;;;21.18;100.00;95026.00;2216088;58;26118;-61
2021/09/18 07:05:31;;;;;;;2.30;2.10;;;19.40;99.90;;;21.84;100.00;95027.00;2346167;57;26218;-61
2021/09/18 07:08:17;;;;;;;3.10;2.30;;;20.00;99.90;;;22.82;100.00;95024.00;2215143;57;26169;-59
2021/09/18 07:11:03;;;;;;;2.47;2.20;;;20.30;99.90;;;23.19;100.00;95024.00;2224805;57;26651;-59
2021/09/18 07:13:50;;;;;;;2.60;2.28;;;20.90;99.90;;;23.45;100.00;95020.00;2232322;57;26249;-60
2021/09/18 07:16:37;;;;;;;2.30;2.10;;;21.20;99.90;;;24.09;100.00;95024.00;2434652;57;26198;-60
2021/09/18 07:19:23;;;;;;;2.30;2.10;;;21.80;99.90;;;24.86;100.00;95024.00;2215697;58;26572;-59
2021/09/18 07:22:09;;;;;;;3.45;2.00;;;22.40;99.90;;;25.39;100.00;95034.00;2290107;57;26122;-59
2021/09/18 07:24:56;;;;;;;2.42;2.08;;;22.60;99.90;;;25.81;100.00;95030.00;2408553;57;26555;-59
2021/09/18 07:27:43;;;;;;;3.87;2.12;;;22.80;99.90;;;26.05;100.00;95032.00;2214072;57;25226;-59
2021/09/18 07:30:30;;;;;;;2.30;2.10;;;23.20;99.90;;;26.39;100.00;95032.00;2213929;57;26244;-59
2021/09/18 07:33:17;;;;;;;2.85;2.20;;;23.50;99.90;;;25.67;100.00;95025.00;2213800;57;25628;-59
2021/09/18 07:36:04;;;;;;;2.20;2.00;;;23.20;99.90;;;25.92;98.02;95035.00;2213647;57;26237;-59
2021/09/18 07:38:51;;;;;;;3.62;2.12;;;23.60;99.90;;;26.99;97.26;95026.00;2228430;57;26204;-59
2021/09/18 07:41:37;;;;;;;2.20;2.00;;;23.70;99.90;;;27.39;86.31;95027.00;2433394;57;26173;-60
2021/09/18 07:44:24;;;;;;;2.50;2.30;;;24.90;99.90;;;27.91;80.53;95024.00;2214083;58;26279;-59
2021/09/18 07:47:11;;;;;;;2.22;2.03;;;23.90;99.90;;;26.86;80.64;95021.00;2218960;57;25662;-59
2021/09/18 07:49:57;;;;;;;2.10;2.00;;;24.70;99.90;;;27.41;81.44;95028.00;2214560;57;25118;-59
2021/09/18 07:52:44;;;;;;;2.30;2.10;;;24.90;99.90;;;27.22;88.49;95030.00;2214191;57;26176;-59
2021/09/18 07:55:32;;;;;;;3.55;2.20;;;24.80;99.90;;;27.63;75.84;95028.00;2215175;57;25306;-59
2021/09/18 07:58:18;;;;;;;2.85;2.20;;;24.70;99.90;;;27.82;81.35;95024.00;2215186;58;25568;-59
2021/09/18 08:01:04;;;;;;;2.95;1.90;;;23.70;99.90;;;26.46;79.96;95021.00;2225683;57;26298;-59
2021/09/18 08:03:51;;;;;;;2.97;2.20;;;24.10;99.90;;;27.15;89.22;95024.00;2433422;57;25101;-59
2021/09/18 08:06:37;;;;;;;4.75;2.78;;;24.80;99.90;;;28.66;70.72;95023.00;2433906;57;25556;-60
2021/09/18 08:09:24;;;;;;;3.72;2.25;;;25.50;99.90;;;28.22;71.02;95028.00;2216264;57;25660;-60
2021/09/18 08:12:10;;;;;;;3.45;2.20;;;25.10;99.90;;;28.20;79.62;95023.00;2213863;57;25157;-59
2021/09/18 08:14:57;;;;;;;4.60;2.10;;;25.10;99.90;;;28.63;71.35;95023.00;2272881;57;25169;-59
2021/09/18 08:17:45;;;;;;;2.15;1.83;;;25.80;99.90;;;29.66;69.38;95026.00;2213808;57;25118;-59
2021/09/18 08:20:32;;;;;;;3.58;2.22;;;26.00;99.90;;;29.68;68.28;95023.00;2433477;57;25194;-60
2021/09/18 08:23:18;;;;;;;3.80;2.25;;;25.90;99.90;;;29.12;63.45;95018.00;2215082;58;25102;-59
2021/09/18 08:26:05;;;;;;;2.37;2.17;;;24.90;99.90;;;27.75;67.66;95021.00;2278701;57;25105;-59
2021/09/18 08:31:49;;;;;;;3.70;2.47;;;25.30;99.90;;;29.18;72.92;95019.00;2226142;55;32444;-60
2021/09/18 08:34:35;;;;;;;2.83;2.50;;;25.20;99.90;;;28.97;57.89;95018.00;2242427;56;25091;-59
2021/09/18 08:37:22;;;;;;;4.05;2.65;;;25.70;99.90;;;29.18;71.71;95025.00;2218426;56;25716;-59
2021/09/18 08:40:11;;;;;;;2.35;2.15;;;25.90;99.90;;;29.90;66.83;95018.00;2249455;56;25148;-59
2021/09/18 08:42:57;;;;;;;2.30;2.10;;;27.00;99.90;;;30.37;57.13;95017.00;2466382;55;25156;-60
2021/09/18 08:45:44;;;;;;;2.20;2.00;;;27.10;99.90;;;30.61;58.66;95011.00;2280507;55;25164;-59
2021/09/18 08:48:32;;;;;;;3.47;1.90;;;27.60;99.90;;;31.09;55.84;95018.00;2287411;55;25653;-58
2021/09/18 08:51:18;;;;;;;2.30;2.10;;;27.30;99.90;;;30.68;59.55;95015.00;2468258;55;25100;-61
2021/09/18 08:54:05;;;;;;;3.08;2.15;;;27.10;99.90;;;30.13;55.40;95011.00;2481205;55;25120;-59
2021/09/18 08:56:51;;;;;;;2.35;1.98;;;26.20;99.90;;;29.92;52.48;95013.00;2245930;55;25144;-59
2021/09/18 08:59:39;;;;;;;2.15;1.98;;;26.60;99.90;;;30.58;61.08;95007.00;2240329;56;25177;-59
2021/09/18 09:02:30;;;;;;;2.25;1.77;;;27.60;99.90;;;31.42;49.11;95003.00;2245187;56;25120;-60
2021/09/18 09:05:17;;;;;;;2.62;1.70;;;27.90;99.90;;;31.24;55.59;95001.00;2240817;56;25220;-59
2021/09/18 09:08:08;;;;;;;4.45;2.00;;;28.20;99.90;;;31.87;58.60;95006.00;2240592;56;25200;-59
2021/09/18 09:10:55;;;;;;;2.28;2.10;;;28.30;99.90;;;31.99;61.10;94998.00;2241327;57;25085;-59
2021/09/18 09:13:54;;;;;;;3.08;1.90;;;28.30;99.90;;;31.70;53.62;95006.00;2466145;56;25118;-60
2021/09/18 09:19:54;;;;;;;1.92;1.83;;;29.10;99.90;;;32.84;48.35;94994.00;2231512;55;32248;-59
2021/09/18 09:22:44;;;;;;;1.98;1.87;;;29.00;99.90;;;32.90;47.99;94996.00;2246238;55;25696;-59
2021/09/18 09:25:33;;;;;;;4.22;1.80;;;29.70;99.90;;;32.72;42.36;94998.00;2221538;56;25114;-59
2021/09/18 09:28:32;;;;;;;2.00;1.80;;;28.90;99.90;;;32.04;54.16;94992.00;2212154;56;25136;-59
2021/09/18 09:31:25;;;;;;;2.37;2.17;;;28.80;99.90;;;32.67;50.03;94990.00;2226332;56;25169;-58
2021/09/18 09:34:15;;;;;;;2.90;2.22;;;29.20;99.90;;;33.26;43.08;94994.00;2238490;57;25130;-59
2021/09/18 09:37:04;;;;;;;2.35;2.15;;;29.30;99.90;;;32.63;39.92;94991.00;2252966;56;25607;-59
2021/09/18 09:39:53;;;;;;;2.67;2.47;;;28.20;99.90;;;30.50;47.93;94994.00;2240370;56;25070;-59
2021/09/18 09:42:44;;;;;;;2.92;2.08;;;28.50;99.90;;;32.26;44.57;94990.00;2240607;56;25193;-59
2021/09/18 09:45:32;;;;;;;1.98;1.87;;;28.80;99.90;;;33.08;47.68;94984.00;2215024;57;25172;-59
2021/09/18 09:48:22;;;;;;;2.17;1.90;;;28.70;99.90;;;33.32;41.54;94981.00;2215457;57;25163;-59
2021/09/18 09:51:09;;;;;;;2.00;1.90;;;29.40;99.90;;;33.56;44.05;94984.00;2359331;56;25147;-59
2021/09/18 09:54:13;;;;;;;2.35;2.10;;;29.90;99.90;;;34.31;46.25;94990.00;2214232;57;25090;-59
2021/09/18 09:57:10;;;;;;;1.87;1.77;;;29.90;99.90;;;34.71;41.29;94984.00;2213867;57;25840;-58
2021/09/18 10:02:57;;;;;;;2.00;1.90;;;30.00;99.90;;;34.24;37.93;94977.00;2253222;54;32264;-59
2021/09/18 10:05:45;;;;;;;2.15;2.05;;;29.80;99.90;;;34.07;37.95;94977.00;2244973;56;25268;-59
2021/09/18 10:08:32;;;;;;;2.17;1.98;;;30.30;99.90;;;34.69;37.86;94970.00;2244105;56;25093;-59
2021/09/18 10:11:28;;;;;;;2.42;1.70;;;30.20;99.90;;;33.81;36.43;94972.00;2323499;55;25121;-59
2021/09/18 10:14:22;;;;;;;2.17;1.95;;;30.00;99.90;;;34.31;41.84;94973.00;2287942;55;25085;-59
2021/09/18 10:17:09;;;;;;;1.95;1.80;;;29.80;99.90;;;33.43;35.77;94966.00;2521705;55;25106;-59
2021/09/18 10:20:05;;;;;;;1.92;1.80;;;29.70;99.90;;;34.58;34.50;94969.00;2287660;55;25162;-59
2021/09/18 10:25:59;;;;;;;1.60;1.50;;;30.70;99.90;;;35.74;32.83;94959.00;2448070;55;25652;-59
2021/09/18 10:32:01;;;;;;;2.75;1.50;;;30.50;99.90;;;34.54;37.11;94957.00;2264129;54;32388;-59
2021/09/18 10:34:48;;;;;;;2.10;1.90;;;30.30;99.90;;;35.14;33.86;94960.00;2235876;55;25590;-59
2021/09/18 10:37:37;;;;;;;1.70;1.60;;;31.10;99.90;;;35.71;32.56;94952.00;2234512;56;25625;-59
2021/09/18 10:40:24;;;;;;;2.45;1.80;;;31.40;99.90;;;35.82;33.41;94956.00;2302878;55;25258;-59
2021/09/18 10:43:27;;;;;;;3.03;1.60;;;31.20;99.90;;;36.42;33.65;94946.00;2259141;55;25726;-59
2021/09/18 10:46:41;;;;;;;1.75;1.62;;;30.90;99.90;;;36.34;32.15;94948.00;2259070;56;25116;-59
2021/09/18 10:49:40;;;;;;;2.37;1.77;;;31.00;99.90;;;36.56;29.94;94949.00;2258709;55;25129;-59
2021/09/18 10:52:29;;;;;;;1.70;1.58;;;31.50;99.90;;;37.35;32.36;94948.00;2259581;55;25555;-59
2021/09/18 10:55:16;;;;;;;1.83;1.73;;;31.30;99.90;;;36.59;31.51;94941.00;2486037;55;25125;-59
2021/09/18 11:01:06;;;;;;;1.50;1.35;;;30.60;99.90;;;33.04;33.96;94945.00;2476839;55;32192;-58
2021/09/18 11:03:52;;;;;;;3.47;1.60;;;28.70;99.90;;;31.56;32.45;94946.00;2261801;55;25512;-58
2021/09/18 11:06:41;;;;;;;2.33;1.85;;;26.10;99.90;;;27.09;39.48;94953.00;2262345;55;26673;-59
2021/09/18 11:09:48;;;;;;;2.08;1.87;;;24.20;99.90;;;24.54;55.81;94944.00;2262314;55;26168;-58
2021/09/18 11:12:35;;;;;;;1.73;1.60;;;22.60;99.90;;;22.92;75.33;94944.00;2262322;55;25169;-60
2021/09/18 11:15:38;;;;;;;3.87;2.00;;;21.60;99.90;;;22.31;91.38;94938.00;2490491;55;26177;-60
2021/09/18 11:18:36;;;;;;;1.85;1.75;;;20.90;99.90;;;21.67;78.84;94944.00;2412695;55;26127;-61
2021/09/18 11:21:25;;;;;;;2.10;1.90;;;20.20;99.90;;;20.61;100.00;94942.00;2425258;55;26130;-60
2021/09/18 11:24:25;;;;;;;3.15;1.83;;;19.60;99.90;;;20.18;100.00;94942.00;2236246;56;26636;-59
2021/09/18 11:27:31;;;;;;;1.73;1.60;;;20.50;99.90;;;21.68;97.25;94940.00;2460332;55;26164;-60
2021/09/18 11:30:17;;;;;;;2.33;1.70;;;21.70;99.90;;;23.98;79.83;94934.00;2460262;55;26161;-60
2021/09/18 11:33:04;;;;;;;1.92;1.60;;;22.00;99.90;;;23.74;78.08;94931.00;2236967;56;26584;-59
2021/09/18 11:35:55;;;;;;;2.40;1.62;;;21.90;99.90;;;22.90;96.53;94934.00;2247675;56;26253;-60
2021/09/18 11:38:43;;;;;;;2.05;1.62;;;22.20;99.90;;;23.65;86.04;94930.00;2459868;55;26297;-59
2021/09/18 11:41:30;;;;;;;1.80;1.50;;;22.20;99.90;;;23.65;84.64;94930.00;2242308;56;26141;-59
2021/09/18 11:44:17;;;;;;;2.22;1.90;;;23.90;99.90;;;25.66;76.05;94932.00;2286669;56;26149;-60
2021/09/18 11:47:05;;;;;;;2.47;1.92;;;25.40;99.90;;;27.52;64.62;94925.00;2291478;55;26213;-60
2021/09/18 11:49:52;;;;;;;2.33;1.85;;;26.00;99.90;;;27.43;55.85;94928.00;2318681;55;26156;-60
2021/09/18 11:52:40;;;;;;;1.60;1.50;;;26.40;99.90;;;27.77;60.62;94924.00;2237411;56;26115;-60
2021/09/18 11:55:31;;;;;;;1.52;1.30;;;26.50;99.90;;;28.00;56.49;94925.00;2236825;56;26121;-59
2021/09/18 11:58:20;;;;;;;1.60;1.50;;;26.90;99.90;;;27.74;54.29;94920.00;2388328;55;26116;-58
2021/09/18 12:01:10;;;;;;;1.98;1.60;;;27.10;99.90;;;27.72;57.96;94922.00;2459827;55;26706;-58
2021/09/18 12:03:57;;;;;;;1.73;1.55;;;27.00;99.90;;;27.15;58.26;94922.00;2246196;56;26559;-58
2021/09/18 12:06:43;;;;;;;1.40;1.30;;;27.10;99.90;;;27.71;60.07;94922.00;2235552;57;26173;-58
2021/09/18 12:09:30;;;;;;;1.70;1.60;;;27.20;99.90;;;27.71;62.93;94926.00;2458276;56;26120;-58
2021/09/18 12:12:26;;;;;;;2.90;1.62;;;27.10;99.90;;;27.40;65.78;94924.00;2239197;56;26628;-58
2021/09/18 12:15:14;;;;;;;2.00;1.60;;;26.20;99.90;;;25.89;55.19;94926.00;2248022;56;26189;-58
2021/09/18 12:18:01;;;;;;;2.58;1.52;;;25.90;99.90;;;26.10;71.60;94922.00;2256363;56;26197;-58
2021/09/18 12:20:47;;;;;;;1.50;1.40;;;25.40;99.90;;;25.39;60.14;94918.00;2483547;56;26118;-58
2021/09/18 12:23:42;;;;;;;2.87;1.50;;;25.20;99.90;;;25.14;61.63;94915.00;2483414;56;26798;-58
2021/09/18 12:26:31;;;;;;;1.95;1.60;;;24.90;99.90;;;24.87;65.91;94919.00;2483920;56;26097;-60
2021/09/18 12:29:19;;;;;;;1.90;1.70;;;24.20;99.90;;;23.94;68.15;94915.00;2483923;56;26595;-59
2021/09/18 12:32:07;;;;;;;1.62;1.52;;;23.00;99.90;;;22.71;73.45;94908.00;2454915;55;26149;-60
2021/09/18 12:34:58;;;;;;;1.70;1.60;;;23.10;99.90;;;23.28;76.75;94910.00;2231399;56;26133;-60
2021/09/18 12:37:45;;;;;;;1.85;1.60;;;23.40;99.90;;;23.80;87.32;94908.00;2234343;56;26168;-59